Time;durP1;ratioP1;P1;durP2;ratioP2;P2;SDS_P1;SDS_P2;PMS_P1;PMS_P2;Temp;Humidity;BMP_temperature;BMP_pressure;BME280_temperature;BME280_humidity;BME280_pressure;Samples;Min_cycle;Max_cycle;Signal;HPM_P1;HPM_P2
2022/09/26 00:01:57;;;;;;;9.40;4.92;;;;;;;8.41;85.12;101724.41;1915730;75;21043;-62
2022/09/26 00:04:28;;;;;;;7.90;4.70;;;;;;;8.43;85.06;101722.70;1915634;75;21474;-61
2022/09/26 00:06:57;;;;;;;13.93;6.78;;;;;;;8.45;85.02;101726.16;1915622;75;21090;-61
2022/09/26 00:09:28;;;;;;;12.43;6.42;;;;;;;8.48;84.99;101724.36;1915739;75;21048;-61
2022/09/26 00:11:56;;;;;;;9.93;4.50;;;;;;;8.49;84.91;101720.83;1915663;75;21105;-62
2022/09/26 00:14:27;;;;;;;9.80;4.53;;;;;;;8.47;84.76;101721.75;1915788;75;21071;-62
2022/09/26 00:16:56;;;;;;;11.90;4.50;;;;;;;8.43;84.67;101706.50;1915639;75;21087;-62
2022/09/26 00:19:25;;;;;;;12.65;6.65;;;;;;;8.43;84.69;101704.33;1915680;75;21091;-62
2022/09/26 00:21:54;;;;;;;11.03;6.65;;;;;;;8.41;84.90;101703.00;1915633;75;21109;-62
2022/09/26 00:24:23;;;;;;;17.60;5.75;;;;;;;8.41;85.24;101705.63;1915624;75;21035;-62
2022/09/26 00:26:51;;;;;;;13.90;6.67;;;;;;;8.39;85.41;101712.66;1915612;75;21051;-62
2022/09/26 00:29:20;;;;;;;12.07;6.35;;;;;;;8.37;85.34;101712.23;1915520;75;21082;-62
2022/09/26 00:31:49;;;;;;;11.83;6.03;;;;;;;8.37;85.70;101710.92;1915629;75;21067;-62
2022/09/26 00:34:19;;;;;;;14.53;6.58;;;;;;;8.35;86.28;101717.50;1913446;74;21091;-62
2022/09/26 00:36:49;;;;;;;12.98;5.97;;;;;;;8.34;86.56;101714.89;1912342;75;21036;-62
2022/09/26 00:39:18;;;;;;;10.28;6.00;;;;;;;8.34;86.78;101709.64;1912179;75;21097;-62
2022/09/26 00:41:47;;;;;;;11.20;6.35;;;;;;;8.36;86.91;101704.81;1911980;75;21129;-62
2022/09/26 00:44:46;;;;;;;14.58;5.75;;;;;;;8.38;87.15;101711.36;1912091;75;21465;-62
2022/09/26 00:47:36;;;;;;;15.55;7.05;;;;;;;8.38;87.28;101706.97;1912104;75;21509;-62
2022/09/26 00:50:07;;;;;;;9.93;5.45;;;;;;;8.38;87.28;101705.66;1912029;75;21533;-62
2022/09/26 00:52:39;;;;;;;14.07;6.92;;;;;;;8.39;87.21;101711.34;1907972;75;21497;-62
2022/09/26 00:55:11;;;;;;;14.20;5.85;;;;;;;8.40;87.35;101705.19;1912169;75;21124;-62
2022/09/26 00:57:44;;;;;;;13.98;6.90;;;;;;;8.42;87.63;101696.88;1912215;75;21113;-62
2022/09/26 01:00:14;;;;;;;11.73;5.62;;;;;;;8.43;87.83;101693.83;1912046;75;21079;-62
2022/09/26 01:02:45;;;;;;;11.05;5.08;;;;;;;8.43;87.89;101689.44;1911992;75;21121;-62
2022/09/26 01:05:16;;;;;;;12.35;6.37;;;;;;;8.44;87.88;101692.46;1912109;75;21445;-62
2022/09/26 01:07:46;;;;;;;11.57;5.97;;;;;;;8.43;88.19;101689.44;1912233;75;21055;-62
2022/09/26 01:10:15;;;;;;;12.33;5.10;;;;;;;8.43;88.06;101688.58;1912166;75;21140;-62
2022/09/26 01:12:44;;;;;;;16.32;6.95;;;;;;;8.45;88.36;101688.11;1912236;75;21164;-62
2022/09/26 01:15:13;;;;;;;8.98;4.83;;;;;;;8.49;88.56;101685.39;1912102;75;21153;-62
2022/09/26 01:17:44;;;;;;;11.20;6.33;;;;;;;8.53;88.46;101682.28;1912225;75;21024;-62
2022/09/26 01:20:28;;;;;;;6.28;4.22;;;;;;;8.56;88.38;101666.49;1912123;75;21003;-62
2022/09/26 01:22:57;;;;;;;;;;;;;;;8.63;88.60;101672.48;1914955;75;21449;-62
2022/09/26 01:26:02;;;;;;;6.28;3.42;;;;;;;8.68;88.86;101664.96;1904776;75;20150;-64
2022/09/26 01:28:58;;;;;;;10.50;6.33;;;;;;;8.74;88.58;101661.82;1877827;76;21059;-60
2022/09/26 01:35:00;;;;;;;13.32;6.45;;;;;;;8.77;89.24;101665.27;1908666;75;21480;-60
2022/09/26 01:37:36;;;;;;;;;;;;;;;8.80;89.42;101666.99;1907540;75;21520;-60
2022/09/26 01:40:22;;;;;;;15.10;7.83;;;;;;;8.83;89.63;101656.41;1921053;74;20117;-60
2022/09/26 01:42:58;;;;;;;11.35;6.83;;;;;;;8.84;89.40;101655.53;1920966;74;21504;-60
2022/09/26 01:45:30;;;;;;;9.48;5.35;;;;;;;8.84;89.28;101651.14;1919965;74;21171;-60
2022/09/26 01:48:18;;;;;;;10.65;5.50;;;;;;;8.85;89.35;101657.25;1920013;74;21042;-60
2022/09/26 01:50:52;;;;;;;11.75;6.53;;;;;;;8.84;89.12;101649.83;1921086;74;21594;-59
2022/09/26 01:53:24;;;;;;;11.60;6.90;;;;;;;8.82;89.39;101660.80;1921102;75;21002;-60
2022/09/26 01:56:03;;;;;;;10.88;5.47;;;;;;;8.80;89.44;101654.72;1919582;74;21065;-60
2022/09/26 01:58:46;;;;;;;9.60;5.95;;;;;;;8.77;89.36;101660.01;1920978;75;21467;-60
2022/09/26 02:01:16;;;;;;;;;;;;;;;8.74;89.66;101644.30;1923896;75;21095;-60
2022/09/26 02:03:51;;;;;;;10.45;6.30;;;;;;;8.75;90.14;101649.12;1921061;75;20125;-60
2022/09/26 02:06:25;;;;;;;11.85;6.67;;;;;;;8.76;90.13;101644.27;1920459;75;21124;-60
2022/09/26 02:09:00;;;;;;;13.13;6.47;;;;;;;8.74;89.95;101642.98;1920942;74;21050;-59
2022/09/26 02:11:29;;;;;;;10.80;6.08;;;;;;;8.74;89.95;101635.56;1920964;74;21034;-60
2022/09/26 02:14:02;;;;;;;12.55;6.10;;;;;;;8.69;89.97;101636.97;1920895;74;21042;-60
2022/09/26 02:16:46;;;;;;;11.57;4.55;;;;;;;8.65;89.99;101633.95;1921135;75;21180;-60
2022/09/26 02:19:31;;;;;;;7.65;5.12;;;;;;;8.60;90.01;101628.79;1904229;75;21098;-60
2022/09/26 02:22:01;;;;;;;13.00;6.00;;;;;;;8.56;90.11;101632.36;1917535;75;21482;-60
2022/09/26 02:24:30;;;;;;;11.78;4.67;;;;;;;8.54;90.10;101635.89;1917759;75;21124;-60
2022/09/26 02:26:59;;;;;;;12.75;7.85;;;;;;;8.53;90.12;101635.48;1917740;75;21477;-60
2022/09/26 02:29:28;;;;;;;13.72;7.55;;;;;;;8.54;90.35;101636.78;1917767;75;21035;-59
2022/09/26 02:32:04;;;;;;;10.45;6.72;;;;;;;8.58;90.57;101634.97;1917746;75;21058;-60
2022/09/26 02:34:33;;;;;;;14.68;7.45;;;;;;;8.59;90.67;101631.44;1917668;75;21137;-61
2022/09/26 02:37:04;;;;;;;11.45;6.30;;;;;;;8.61;90.81;101632.27;1917741;75;21517;-61
2022/09/26 02:39:34;;;;;;;14.33;6.70;;;;;;;8.62;90.82;101632.70;1917789;74;21043;-61
2022/09/26 02:42:28;;;;;;;9.95;5.95;;;;;;;8.63;90.78;101625.23;1916084;75;21054;-61
2022/09/26 02:45:05;;;;;;;8.38;4.87;;;;;;;8.60;90.53;101628.79;1916937;75;21575;-61
2022/09/26 02:48:10;;;;;;;8.53;4.20;;;;;;;8.56;90.27;101624.91;1893375;75;21058;-61
2022/09/26 02:51:05;;;;;;;10.38;4.90;;;;;;;8.50;90.09;101624.56;1917779;75;21066;-61
2022/09/26 02:53:51;;;;;;;9.40;5.70;;;;;;;8.45;90.13;101622.03;1916410;75;21109;-61
2022/09/26 02:56:36;;;;;;;10.95;6.25;;;;;;;8.42;90.18;101622.07;1917264;75;21105;-61
2022/09/26 02:59:46;;;;;;;10.35;6.58;;;;;;;8.42;90.42;101623.39;1917755;75;21061;-61
2022/09/26 03:02:21;;;;;;;12.28;7.05;;;;;;;8.44;90.79;101628.16;1917969;75;21055;-61
2022/09/26 03:05:03;;;;;;;12.75;6.37;;;;;;;8.46;90.82;101632.08;1913278;75;21097;-61
2022/09/26 03:07:35;;;;;;;10.85;7.30;;;;;;;8.46;90.95;101622.44;1917638;75;21133;-62
2022/09/26 03:10:08;;;;;;;9.87;6.60;;;;;;;8.44;90.97;101624.23;1917600;75;21086;-61
2022/09/26 03:12:38;;;;;;;15.83;7.00;;;;;;;8.44;90.87;101622.05;1917864;75;21101;-60
2022/09/26 03:15:09;;;;;;;13.35;7.08;;;;;;;8.42;90.92;101621.22;1918033;75;21011;-62
2022/09/26 03:17:40;;;;;;;13.40;7.70;;;;;;;8.40;91.08;101626.45;1917844;74;21035;-61
2022/09/26 03:20:13;;;;;;;12.37;7.17;;;;;;;8.39;91.10;101621.22;1930293;74;21100;-62
2022/09/26 03:22:43;;;;;;;19.23;10.90;;;;;;;8.40;91.08;101619.89;1930737;74;21081;-61
2022/09/26 03:25:15;;;;;;;14.55;8.10;;;;;;;8.41;91.07;101622.95;1930303;74;21579;-61
2022/09/26 03:27:47;;;;;;;11.80;6.45;;;;;;;8.41;91.10;101621.64;1929159;74;21079;-61
2022/09/26 03:30:18;;;;;;;9.43;5.87;;;;;;;8.41;91.04;101626.89;1930373;74;21066;-61
2022/09/26 03:32:49;;;;;;;12.88;5.53;;;;;;;8.41;90.82;101621.64;1927619;74;21061;-62
2022/09/26 03:35:19;;;;;;;8.58;4.87;;;;;;;8.43;90.95;101622.51;1930366;74;21477;-61
2022/09/26 03:37:49;;;;;;;11.97;6.42;;;;;;;8.45;91.10;101623.34;1930392;74;21118;-61
2022/09/26 03:40:18;;;;;;;8.95;4.17;;;;;;;8.47;91.15;101634.69;1930316;74;21148;-61
2022/09/26 03:42:51;;;;;;;12.68;6.60;;;;;;;8.50;90.99;101638.58;1926392;73;21092;-61
2022/09/26 03:45:20;;;;;;;10.60;5.83;;;;;;;8.53;90.95;101636.34;1930199;74;21120;-62
2022/09/26 03:47:56;;;;;;;10.35;6.03;;;;;;;8.57;90.85;101629.28;1914048;74;21164;-62
2022/09/26 03:50:25;;;;;;;12.78;6.65;;;;;;;8.63;90.80;101630.48;1930451;74;21014;-62
2022/09/26 03:52:53;;;;;;;9.98;5.62;;;;;;;8.72;90.75;101631.64;1930303;74;21045;-62
2022/09/26 03:55:22;;;;;;;11.75;6.35;;;;;;;8.81;90.65;101626.23;1930371;74;21078;-62
2022/09/26 03:57:52;;;;;;;11.25;6.65;;;;;;;8.92;90.61;101627.81;1930285;74;21418;-62
2022/09/26 04:00:22;;;;;;;13.10;7.50;;;;;;;9.01;90.52;101631.59;1928162;74;21113;-62
2022/09/26 04:02:51;;;;;;;14.43;6.40;;;;;;;9.12;90.40;101630.94;1930323;74;21038;-62
2022/09/26 04:05:28;;;;;;;15.58;7.50;;;;;;;9.21;90.22;101626.82;1927988;74;21102;-62
2022/09/26 04:08:01;;;;;;;14.13;8.30;;;;;;;9.26;90.05;101624.98;1930450;74;21019;-62
2022/09/26 04:10:29;;;;;;;15.25;7.17;;;;;;;9.32;89.91;101624.45;1930234;74;21209;-62
2022/09/26 04:12:59;;;;;;;13.48;5.97;;;;;;;9.30;89.77;101616.59;1930380;74;21113;-62
2022/09/26 04:15:28;;;;;;;14.60;6.85;;;;;;;9.29;89.67;101616.16;1930376;74;21112;-62
2022/09/26 04:18:04;;;;;;;12.15;5.90;;;;;;;9.27;89.58;101616.19;1929675;74;21552;-62
2022/09/26 04:20:34;;;;;;;5.12;3.90;;;;;;;9.29;89.53;101613.53;1915085;74;21169;-62
2022/09/26 04:23:04;;;;;;;11.60;6.72;;;;;;;9.35;89.48;101612.54;1914046;75;21035;-60
2022/09/26 04:25:36;;;;;;;11.90;6.78;;;;;;;9.43;89.40;101606.70;1914007;75;21098;-60
2022/09/26 04:28:04;;;;;;;10.13;6.17;;;;;;;9.58;89.29;101603.73;1913981;75;21470;-60
2022/09/26 04:30:33;;;;;;;12.68;5.70;;;;;;;9.74;89.11;101604.29;1913973;75;21510;-60
2022/09/26 04:33:02;;;;;;;13.55;6.40;;;;;;;9.84;88.99;101601.00;1913947;75;21180;-62
2022/09/26 04:35:38;;;;;;;9.58;4.97;;;;;;;9.96;88.82;101602.48;1913903;75;21160;-60
2022/09/26 04:38:07;;;;;;;11.35;5.60;;;;;;;10.01;88.62;101600.19;1913987;75;21027;-60
2022/09/26 04:40:37;;;;;;;12.23;5.62;;;;;;;9.99;88.46;101598.01;1914023;75;21129;-62
2022/09/26 04:43:08;;;;;;;10.65;5.17;;;;;;;10.01;88.39;101602.81;1912774;75;21083;-60
2022/09/26 04:45:41;;;;;;;10.03;5.40;;;;;;;10.16;88.27;101604.66;1913851;75;21177;-60
2022/09/26 04:48:10;;;;;;;9.00;4.55;;;;;;;10.32;88.04;101613.95;1914065;75;21039;-60
2022/09/26 04:50:47;;;;;;;8.65;4.40;;;;;;;10.50;87.84;101611.33;1914096;75;21102;-60
2022/09/26 04:53:18;;;;;;;10.40;5.37;;;;;;;10.70;87.59;101607.34;1913947;75;21090;-60
2022/09/26 04:56:03;;;;;;;8.18;3.77;;;;;;;10.93;87.44;101604.09;1913378;75;21149;-61
2022/09/26 04:58:32;;;;;;;11.05;3.72;;;;;;;11.09;87.24;101598.81;1914135;75;21043;-60
2022/09/26 05:01:08;;;;;;;8.03;3.92;;;;;;;11.18;86.88;101598.56;1913930;75;21039;-60
2022/09/26 05:03:39;;;;;;;6.03;3.85;;;;;;;11.30;86.51;101599.13;1912362;75;21541;-61
2022/09/26 05:06:10;;;;;;;10.38;4.45;;;;;;;11.40;86.23;101595.33;1914214;75;21126;-60
2022/09/26 05:08:41;;;;;;;11.15;4.70;;;;;;;11.54;86.10;101590.48;1913782;75;21505;-61
2022/09/26 05:11:10;;;;;;;8.95;4.25;;;;;;;11.82;85.94;101588.34;1913949;75;21113;-61
2022/09/26 05:13:40;;;;;;;9.90;4.53;;;;;;;12.27;85.66;101583.89;1914064;75;21133;-61
2022/09/26 05:16:10;;;;;;;17.80;3.90;;;;;;;12.97;85.19;101590.80;1914094;75;21138;-60
2022/09/26 05:18:40;;;;;;;6.92;3.45;;;;;;;13.89;84.76;101588.23;1913994;75;21042;-60
2022/09/26 05:21:09;;;;;;;6.58;3.00;;;;;;;14.96;83.93;101582.08;1907986;74;21079;-61
2022/09/26 05:26:40;;;;;;;5.87;3.15;;;;;;;16.31;81.50;101583.37;1907299;75;21039;-60
2022/09/26 05:29:10;;;;;;;9.23;2.90;;;;;;;16.29;81.28;101579.92;1907234;75;21063;-61
2022/09/26 05:31:55;;;;;;;4.10;2.58;;;;;;;16.11;81.40;101578.55;1906144;75;21136;-62
2022/09/26 05:34:25;;;;;;;5.42;2.90;;;;;;;15.99;81.61;101584.45;1907256;75;21498;-61
2022/09/26 05:36:55;;;;;;;8.23;2.90;;;;;;;15.91;81.67;101588.81;1907478;75;21599;-61
2022/09/26 05:42:14;;;;;;;10.38;2.87;;;;;;;16.02;81.12;101597.59;1907326;75;21553;-61
2022/09/26 05:44:43;;;;;;;8.73;3.47;;;;;;;16.11;80.46;101597.15;1907511;75;21177;-61
2022/09/26 05:47:13;;;;;;;7.55;2.60;;;;;;;16.19;80.10;101595.44;1907291;75;21146;-61
2022/09/26 05:49:41;;;;;;;6.53;2.58;;;;;;;16.37;79.79;101595.86;1907311;75;21051;-61
2022/09/26 05:55:01;;;;;;;6.60;3.17;;;;;;;17.31;78.40;101592.86;1806640;79;21215;-60
2022/09/26 05:57:57;;;;;;;10.13;3.40;;;;;;;18.12;77.29;101589.70;1806649;79;21175;-60
2022/09/26 06:00:28;;;;;;;10.85;2.83;;;;;;;18.80;76.49;101590.23;1806513;79;21128;-61
2022/09/26 06:02:59;;;;;;;6.70;2.50;;;;;;;19.16;75.63;101587.13;1806533;79;21122;-61
2022/09/26 06:05:34;;;;;;;9.35;3.47;;;;;;;19.29;75.11;101593.45;1803911;79;21108;-60
2022/09/26 06:08:14;;;;;;;5.85;2.42;;;;;;;19.41;74.68;101591.81;1806354;79;21095;-60
2022/09/26 06:10:47;;;;;;;6.20;2.90;;;;;;;19.73;74.12;101581.41;1805973;79;21099;-61
2022/09/26 06:13:16;;;;;;;8.70;3.37;;;;;;;20.33;73.28;101581.51;1806608;79;21080;-61
2022/09/26 06:15:53;;;;;;;12.55;4.67;;;;;;;20.61;72.18;101586.72;1806711;79;21519;-62
2022/09/26 06:18:23;;;;;;;9.50;4.47;;;;;;;20.82;71.63;101587.09;1806683;79;21064;-62
2022/09/26 06:20:52;;;;;;;10.15;4.08;;;;;;;21.17;70.71;101582.44;1806929;79;21565;-62
2022/09/26 06:23:21;;;;;;;9.88;4.10;;;;;;;21.93;69.76;101587.73;1806777;79;21064;-62
2022/09/26 06:25:50;;;;;;;17.02;5.45;;;;;;;22.61;68.18;101588.95;1806699;79;21142;-62
2022/09/26 06:28:19;;;;;;;17.15;3.67;;;;;;;23.28;66.82;101590.06;1806865;79;21068;-62
2022/09/26 06:30:48;;;;;;;7.28;2.83;;;;;;;23.81;65.21;101583.56;1806754;79;21134;-62
2022/09/26 06:33:18;;;;;;;6.67;2.75;;;;;;;24.02;64.04;101592.19;1804516;79;21198;-62
2022/09/26 06:35:48;;;;;;;6.33;2.80;;;;;;;23.94;63.23;101590.59;1784439;79;21088;-62
2022/09/26 06:38:18;;;;;;;7.20;2.67;;;;;;;23.80;62.28;101592.59;1806136;79;21117;-62
2022/09/26 06:40:47;;;;;;;7.85;2.02;;;;;;;24.25;61.39;101599.67;1806732;79;21065;-61
2022/09/26 06:43:16;;;;;;;14.50;2.37;;;;;;;25.16;59.54;101600.06;1806721;79;21072;-62
2022/09/26 06:45:47;;;;;;;13.60;2.45;;;;;;;25.36;58.64;101600.53;1784485;79;21116;-61
2022/09/26 06:48:18;;;;;;;14.55;2.98;;;;;;;25.91;57.54;101593.86;1806152;79;21617;-62
2022/09/26 06:50:53;;;;;;;12.73;3.37;;;;;;;26.71;55.89;101590.09;1796803;79;21099;-62
2022/09/26 06:53:22;;;;;;;24.80;3.45;;;;;;;27.42;54.23;101584.69;1808945;78;21068;-62
2022/09/26 06:55:51;;;;;;;17.35;3.87;;;;;;;27.86;52.55;101578.09;1830611;78;21161;-62
2022/09/26 06:58:21;;;;;;;17.87;4.35;;;;;;;27.98;50.70;101581.48;1830585;78;21059;-62
2022/09/26 07:00:51;;;;;;;22.77;5.05;;;;;;;28.28;49.47;101580.23;1828574;78;21075;-62
2022/09/26 07:03:24;;;;;;;21.80;6.67;;;;;;;27.43;50.15;101588.27;1828648;78;21090;-62
2022/09/26 07:06:00;;;;;;;21.93;5.25;;;;;;;25.95;51.55;101592.14;1829107;78;21082;-62
2022/09/26 07:08:29;;;;;;;22.00;5.87;;;;;;;24.68;52.45;101592.52;1830591;78;21036;-62
2022/09/26 07:11:01;;;;;;;25.97;5.75;;;;;;;23.71;53.31;101583.41;1830630;78;21070;-62
2022/09/26 07:13:30;;;;;;;39.00;11.33;;;;;;;22.97;54.39;101588.41;1830796;78;21502;-62
2022/09/26 07:15:59;;;;;;;23.07;7.67;;;;;;;23.75;53.47;101576.44;1830613;78;21181;-62
2022/09/26 07:18:42;;;;;;;15.50;4.62;;;;;;;24.18;53.13;101576.94;1786809;78;21052;-62
2022/09/26 07:21:18;;;;;;;7.70;2.50;;;;;;;23.71;53.45;101577.17;1829728;78;21187;-62
2022/09/26 07:23:49;;;;;;;10.28;2.40;;;;;;;22.95;54.00;101572.91;1827845;78;21181;-62
2022/09/26 07:26:19;;;;;;;7.87;2.67;;;;;;;22.68;54.44;101569.19;1830151;78;21123;-62
2022/09/26 07:28:48;;;;;;;11.55;3.55;;;;;;;22.53;54.77;101568.54;1830626;78;21153;-62
2022/09/26 07:31:18;;;;;;;6.50;2.50;;;;;;;23.90;53.02;101560.41;1830573;78;21059;-62
2022/09/26 07:33:48;;;;;;;6.50;2.05;;;;;;;24.73;52.08;101562.02;1827957;78;21223;-62
2022/09/26 07:36:19;;;;;;;3.67;1.60;;;;;;;25.71;50.42;101552.51;1830667;78;21542;-62
2022/09/26 07:38:49;;;;;;;7.08;1.70;;;;;;;26.00;49.22;101542.63;1830453;78;21526;-62
2022/09/26 07:41:19;;;;;;;6.30;1.92;;;;;;;26.53;48.86;101542.68;1830508;78;21083;-62
2022/09/26 07:43:48;;;;;;;7.25;2.30;;;;;;;26.33;49.14;101544.55;1830523;78;21126;-62
2022/09/26 07:51:59;;;;;;;3.55;1.20;;;;;;;26.88;47.21;101549.31;1827222;77;21111;-62
2022/09/26 07:54:29;;;;;;;3.75;1.25;;;;;;;26.37;47.92;101545.11;1824564;78;21119;-62
2022/09/26 07:57:18;;;;;;;3.80;1.10;;;;;;;25.51;48.46;101547.56;1815522;79;21216;-63
2022/09/26 07:59:53;;;;;;;6.22;1.90;;;;;;;24.74;49.28;101551.63;1813690;79;21266;-62
2022/09/26 08:02:32;;;;;;;2.75;1.20;;;;;;;24.30;50.03;101543.63;1798896;79;21083;-62
2022/09/26 08:04:59;;;;;;;5.35;1.40;;;;;;;24.52;49.96;101550.77;1815492;79;21131;-62
2022/09/26 08:07:28;;;;;;;3.35;1.22;;;;;;;24.26;50.41;101543.03;1815564;79;21158;-62
2022/09/26 08:10:06;;;;;;;3.87;1.10;;;;;;;23.83;50.59;101531.84;1813240;79;21114;-62
2022/09/26 08:12:53;;;;;;;3.85;1.37;;;;;;;23.84;49.49;101525.97;1815532;79;21108;-62
2022/09/26 08:15:23;;;;;;;2.27;0.93;;;;;;;23.90;48.64;101522.76;1807075;79;21103;-62
2022/09/26 08:17:53;;;;;;;2.95;1.05;;;;;;;25.66;46.33;101523.28;1814018;79;21194;-62
2022/09/26 08:20:22;;;;;;;2.42;1.00;;;;;;;25.94;46.27;101514.03;1815441;79;21052;-63
2022/09/26 08:22:54;;;;;;;3.05;0.80;;;;;;;26.41;43.87;101516.83;1815518;79;21028;-63
2022/09/26 08:25:23;;;;;;;1.95;0.55;;;;;;;25.48;43.10;101511.47;1815813;79;21100;-62
2022/09/26 08:28:11;;;;;;;1.05;0.72;;;;;;;24.60;44.61;101507.02;1812439;79;21121;-62
2022/09/26 08:30:43;;;;;;;2.98;0.80;;;;;;;24.01;45.55;101498.50;1815468;79;21060;-64
2022/09/26 08:33:11;;;;;;;3.90;0.95;;;;;;;24.69;45.33;101494.11;1815709;79;21135;-62
2022/09/26 08:35:40;;;;;;;1.47;0.70;;;;;;;26.12;42.90;101489.39;1815638;79;21064;-62
2022/09/26 08:38:30;;;;;;;0.70;0.60;;;;;;;27.43;40.56;101480.94;1814153;79;21124;-62
2022/09/26 08:41:38;;;;;;;1.05;0.62;;;;;;;28.58;38.60;101478.41;1815439;79;21634;-62
2022/09/26 08:44:40;;;;;;;3.10;0.72;;;;;;;28.71;36.29;101465.78;1777963;79;21165;-62
2022/09/26 08:47:27;;;;;;;2.35;0.70;;;;;;;27.13;38.12;101470.77;1706254;81;21113;-63
2022/09/26 08:50:32;;;;;;;0.90;0.50;;;;;;;25.86;39.78;101470.67;1808112;78;21555;-63
2022/09/26 08:53:01;;;;;;;;;;;;;;;26.17;40.25;101461.48;1818233;79;21506;-63
2022/09/26 08:55:34;;;;;;;1.30;0.80;;;;;;;25.85;40.35;101466.30;1814612;79;20161;-63
2022/09/26 08:58:06;;;;;;;1.20;0.60;;;;;;;26.20;40.31;101466.56;1814780;79;21099;-63
2022/09/26 09:00:39;;;;;;;2.25;0.70;;;;;;;25.81;40.36;101461.17;1815546;79;21067;-63
2022/09/26 09:03:27;;;;;;;0.90;0.70;;;;;;;26.43;40.26;101464.03;1815203;79;21120;-63
2022/09/26 09:06:05;;;;;;;1.75;0.60;;;;;;;27.80;38.21;101462.88;1815548;79;21091;-63
2022/09/26 09:08:49;;;;;;;1.40;0.72;;;;;;;28.70;37.09;101459.52;1815510;79;21056;-62
2022/09/26 09:11:25;;;;;;;1.95;0.70;;;;;;;28.17;37.51;101459.16;1815203;79;21116;-63
2022/09/26 09:14:30;;;;;;;0.93;0.62;;;;;;;26.98;39.02;101456.55;1815532;79;21064;-63
2022/09/26 09:17:43;;;;;;;1.42;0.62;;;;;;;27.17;39.08;101459.16;1755869;82;21653;-63
2022/09/26 09:20:33;;;;;;;1.30;0.53;;;;;;;27.64;38.51;101445.98;1701834;83;21197;-63
2022/09/26 09:23:34;;;;;;;2.15;0.80;;;;;;;26.78;39.95;101440.41;1756561;82;21540;-63
2022/09/26 09:26:06;;;;;;;0.88;0.40;;;;;;;26.08;40.68;101447.50;1784902;80;21148;-62
2022/09/26 09:28:38;;;;;;;0.50;0.45;;;;;;;26.16;40.76;101451.66;1759275;81;21095;-63
2022/09/26 09:31:09;;;;;;;2.33;0.80;;;;;;;25.91;41.05;101455.77;1758976;81;21116;-63
2022/09/26 09:33:46;;;;;;;1.17;0.80;;;;;;;26.45;40.10;101434.56;1738032;82;21103;-63
2022/09/26 09:36:24;;;;;;;1.60;0.57;;;;;;;27.20;39.28;101448.02;1798108;80;21171;-63
2022/09/26 09:39:08;;;;;;;1.35;0.50;;;;;;;27.54;37.88;101440.14;1756667;82;21107;-62
2022/09/26 09:41:48;;;;;;;0.60;0.60;;;;;;;27.81;37.81;101432.93;1797396;80;21113;-63
2022/09/26 09:44:22;;;;;;;1.72;0.60;;;;;;;27.42;37.94;101436.47;1758678;81;21111;-62
2022/09/26 09:46:50;;;;;;;1.47;0.70;;;;;;;27.16;38.40;101443.93;1799603;80;21185;-62
2022/09/26 09:49:24;;;;;;;1.25;0.57;;;;;;;27.26;38.59;101444.77;1784752;80;21153;-62
2022/09/26 09:52:15;;;;;;;1.82;0.70;;;;;;;26.87;38.73;101454.41;1787954;80;21114;-62
2022/09/26 09:54:58;;;;;;;2.47;0.70;;;;;;;26.37;39.37;101445.22;1787742;80;21186;-62
2022/09/26 09:57:39;;;;;;;0.47;0.45;;;;;;;26.08;40.02;101442.58;1787457;80;21103;-62
2022/09/26 10:00:13;;;;;;;0.70;0.50;;;;;;;26.43;39.53;101442.44;1787711;80;21174;-62
2022/09/26 10:03:00;;;;;;;0.50;0.50;;;;;;;26.96;38.69;101427.84;1787792;80;21265;-62
2022/09/26 10:05:33;;;;;;;1.00;0.47;;;;;;;27.29;37.93;101429.56;1787587;80;21140;-62
2022/09/26 10:08:04;;;;;;;2.03;0.67;;;;;;;27.91;36.21;101427.48;1788189;80;21165;-62
2022/09/26 10:11:03;;;;;;;3.33;0.60;;;;;;;27.91;36.21;101427.48;1720420;83;21997;-62
2022/09/26 10:13:35;;;;;;;0.68;0.60;;;;;;;28.17;36.68;101436.14;1783891;80;21085;-63
2022/09/26 10:16:14;;;;;;;0.72;0.65;;;;;;;28.47;36.46;101434.28;1785126;80;21128;-63
2022/09/26 10:19:00;;;;;;;2.08;0.85;;;;;;;28.97;35.54;101421.00;1786281;80;21095;-63
2022/09/26 10:21:34;;;;;;;0.93;0.78;;;;;;;29.38;34.82;101411.62;1787752;80;21167;-62
2022/09/26 10:24:03;;;;;;;2.50;0.70;;;;;;;28.94;35.28;101415.89;1782897;80;21514;-62
2022/09/26 10:26:36;;;;;;;1.42;0.70;;;;;;;27.96;36.20;101405.34;1780247;80;21572;-62
2022/09/26 10:29:20;;;;;;;2.87;0.90;;;;;;;26.80;37.08;101404.67;1788045;80;21135;-62
2022/09/26 10:31:59;;;;;;;0.68;0.50;;;;;;;25.86;38.57;101407.28;1786762;80;21103;-62
2022/09/26 10:34:32;;;;;;;0.85;0.70;;;;;;;25.32;39.66;101410.40;1788177;80;21186;-61
2022/09/26 10:37:25;;;;;;;1.15;0.60;;;;;;;25.06;40.30;101408.69;1787942;80;21068;-61
2022/09/26 10:42:50;;;;;;;4.08;0.90;;;;;;;24.72;40.81;101409.53;1787970;80;21068;-61
2022/09/26 10:45:26;;;;;;;1.12;0.70;;;;;;;24.56;41.19;101414.91;1786563;80;21099;-61
2022/09/26 10:48:08;;;;;;;1.10;0.80;;;;;;;24.43;41.38;101408.86;1788026;80;21212;-61
2022/09/26 10:50:59;;;;;;;0.98;0.65;;;;;;;24.68;41.19;101399.52;1787863;80;21531;-62
2022/09/26 10:53:41;;;;;;;1.12;0.70;;;;;;;24.73;41.04;101399.95;1786207;80;21095;-62
2022/09/26 10:56:18;;;;;;;1.30;0.82;;;;;;;25.58;40.32;101392.33;1788497;80;21041;-62
2022/09/26 10:58:50;;;;;;;3.52;0.62;;;;;;;26.13;39.10;101387.17;1793041;80;21156;-63
2022/09/26 11:01:24;;;;;;;0.75;0.50;;;;;;;26.31;38.42;101381.88;1793455;80;21491;-61
2022/09/26 11:03:54;;;;;;;2.33;0.90;;;;;;;26.46;38.28;101376.84;1793270;80;21160;-61
2022/09/26 11:06:33;;;;;;;1.75;0.80;;;;;;;26.62;37.93;101376.75;1793101;80;21130;-61
2022/09/26 11:09:19;;;;;;;0.65;0.60;;;;;;;26.76;37.90;101373.53;1791044;80;21189;-62
2022/09/26 11:12:24;;;;;;;4.10;0.78;;;;;;;26.84;37.00;101369.59;1731953;80;21095;-62
2022/09/26 11:15:10;;;;;;;1.42;0.82;;;;;;;26.89;36.98;101361.89;1793293;80;21128;-62
2022/09/26 11:17:48;;;;;;;1.02;0.80;;;;;;;26.58;36.65;101353.22;1793149;80;21556;-62
2022/09/26 11:20:20;;;;;;;5.80;1.45;;;;;;;26.25;37.42;101352.78;1793279;80;21146;-62
2022/09/26 11:22:59;;;;;;;1.85;0.70;;;;;;;25.81;38.18;101355.97;1793276;80;21565;-62
2022/09/26 11:25:36;;;;;;;0.90;0.75;;;;;;;25.41;38.55;101354.80;1793071;80;21222;-62
2022/09/26 11:28:10;;;;;;;2.62;0.60;;;;;;;25.27;38.79;101356.09;1793197;80;21104;-62
2022/09/26 11:30:59;;;;;;;0.78;0.60;;;;;;;25.02;39.25;101356.93;1793236;80;21207;-62
2022/09/26 11:33:29;;;;;;;0.78;0.60;;;;;;;24.77;39.72;101372.25;1793399;80;21096;-62
2022/09/26 11:36:40;;;;;;;1.20;0.80;;;;;;;24.54;39.92;101377.84;1793259;80;21104;-62
2022/09/26 11:39:23;;;;;;;1.40;0.75;;;;;;;24.34;40.54;101358.53;1727184;83;21131;-61
2022/09/26 11:42:07;;;;;;;0.62;0.42;;;;;;;24.16;41.09;101364.55;1727067;83;21103;-61
2022/09/26 11:44:39;;;;;;;1.32;0.80;;;;;;;24.07;41.71;101366.69;1774354;80;21506;-61
2022/09/26 11:47:35;;;;;;;2.05;1.02;;;;;;;23.97;42.22;101355.01;1791559;80;21091;-62
2022/09/26 11:50:24;;;;;;;1.90;0.70;;;;;;;23.99;42.75;101360.61;1792917;80;21182;-62
2022/09/26 11:53:44;;;;;;;3.95;1.30;;;;;;;23.94;42.56;101359.30;1791652;80;21079;-62
2022/09/26 11:56:25;;;;;;;1.15;0.60;;;;;;;23.82;43.07;101359.88;1793344;80;21128;-62
2022/09/26 11:59:14;;;;;;;1.40;0.72;;;;;;;23.88;43.43;101356.17;1798910;80;21119;-62
2022/09/26 12:01:51;;;;;;;4.12;0.80;;;;;;;23.87;43.54;101358.99;1799011;80;21171;-62
2022/09/26 12:04:44;;;;;;;1.05;0.78;;;;;;;23.76;43.64;101337.02;1798784;80;21098;-62
2022/09/26 12:07:24;;;;;;;3.17;0.80;;;;;;;23.73;43.87;101314.41;1798563;80;21227;-62
2022/09/26 12:10:26;;;;;;;1.85;0.60;;;;;;;23.70;44.00;101316.89;1765018;80;21091;-62
2022/09/26 12:13:10;;;;;;;0.75;0.70;;;;;;;23.65;44.10;101322.30;1798297;79;21522;-59
2022/09/26 12:15:54;;;;;;;3.33;0.70;;;;;;;23.59;44.30;101325.02;1798678;80;21114;-62
2022/09/26 12:18:52;;;;;;;4.33;0.90;;;;;;;23.58;44.48;101324.64;1798794;80;21095;-62
2022/09/26 12:22:27;;;;;;;3.62;0.80;;;;;;;23.47;44.33;101338.98;1798340;80;21079;-61
2022/09/26 12:24:22;;;;;;;1.22;0.60;;;;;;;23.33;44.58;101329.88;1767301;80;21118;-62
2022/09/26 12:26:56;;;;;;;4.62;0.90;;;;;;;23.22;44.27;101328.59;1755682;80;21046;-61
2022/09/26 12:29:40;;;;;;;;;;;;;;;23.07;44.53;101328.91;1754987;80;21561;-62